createdAt,value
2023-04-25T00:01:20.960Z,3.90
2023-04-25T00:02:54.217Z,3.90
2023-04-25T00:04:28.527Z,3.90
2023-04-25T00:06:03.310Z,3.80
2023-04-25T00:07:36.217Z,3.80
2023-04-25T00:09:10.042Z,3.80
2023-04-25T00:10:43.191Z,3.80
2023-04-25T00:12:16.573Z,3.70
2023-04-25T00:13:51.821Z,3.70
2023-04-25T00:15:25.182Z,3.70
2023-04-25T00:16:58.815Z,3.70
2023-04-25T00:18:34.402Z,3.70
2023-04-25T00:20:10.317Z,3.60
2023-04-25T00:21:43.813Z,3.60
2023-04-25T00:23:18.973Z,3.60
2023-04-25T00:24:54.418Z,3.60
2023-04-25T00:26:27.831Z,3.60
2023-04-25T00:28:00.943Z,3.60
2023-04-25T00:29:35.403Z,3.60
2023-04-25T00:31:08.873Z,3.60
2023-04-25T00:32:42.069Z,3.50
2023-04-25T00:34:14.438Z,3.60
2023-04-25T00:35:48.287Z,3.50
2023-04-25T00:37:20.888Z,3.50
2023-04-25T00:38:55.738Z,3.50
2023-04-25T00:40:29.821Z,3.50
2023-04-25T00:42:03.758Z,3.50
2023-04-25T00:43:39.123Z,3.50
2023-04-25T00:45:16.542Z,3.50
2023-04-25T00:46:49.436Z,3.50
2023-04-25T00:48:24.401Z,3.50
2023-04-25T00:49:57.566Z,3.40
2023-04-25T00:51:32.730Z,3.40
2023-04-25T00:53:06.089Z,3.40
2023-04-25T00:54:39.905Z,3.40
2023-04-25T00:56:13.134Z,3.40
2023-04-25T00:57:46.257Z,3.40
2023-04-25T00:59:21.087Z,3.40
2023-04-25T01:00:54.897Z,3.40
2023-04-25T01:02:29.264Z,3.40
2023-04-25T01:04:03.898Z,3.40
2023-04-25T01:05:37.211Z,3.40
2023-04-25T01:07:10.923Z,3.40
2023-04-25T01:08:44.703Z,3.40
2023-04-25T01:10:18.010Z,3.40
2023-04-25T01:11:51.706Z,3.40
2023-04-25T01:13:24.993Z,3.40
2023-04-25T01:14:57.326Z,3.50
2023-04-25T01:16:34.046Z,3.50
2023-04-25T01:18:08.798Z,3.50
2023-04-25T01:19:41.327Z,3.50
2023-04-25T01:21:16.218Z,3.50
2023-04-25T01:22:50.152Z,3.60
2023-04-25T01:24:23.709Z,3.50
2023-04-25T01:25:57.594Z,3.60
2023-04-25T01:27:31.689Z,3.60
2023-04-25T01:29:06.584Z,3.60
2023-04-25T01:30:40.772Z,3.60
2023-04-25T01:32:15.884Z,3.60
2023-04-25T01:33:50.484Z,3.60
2023-04-25T01:35:24.769Z,3.60
2023-04-25T01:37:03.433Z,3.70
2023-04-25T01:38:37.110Z,3.70
2023-04-25T01:40:12.026Z,3.70
2023-04-25T01:41:45.583Z,3.70
2023-04-25T01:43:19.027Z,3.80
2023-04-25T01:44:51.377Z,3.80
2023-04-25T01:46:24.648Z,3.80
2023-04-25T01:48:00.268Z,3.80
2023-04-25T01:49:33.911Z,3.90
2023-04-25T01:51:07.058Z,3.90
2023-04-25T01:52:41.886Z,3.90
2023-04-25T01:54:15.757Z,3.90
2023-04-25T01:55:48.885Z,3.90
2023-04-25T01:57:25.392Z,4.00
2023-04-25T01:58:59.066Z,4.00
2023-04-25T02:00:52.498Z,4.00
2023-04-25T02:02:25.065Z,4.10
2023-04-25T02:03:58.758Z,4.10
2023-04-25T02:05:38.929Z,4.10
2023-04-25T02:07:14.224Z,4.20
2023-04-25T02:08:58.238Z,4.20
2023-04-25T02:10:31.742Z,4.20
2023-04-25T02:12:16.113Z,4.20
2023-04-25T02:14:12.334Z,4.30
2023-04-25T02:16:06.569Z,4.30
2023-04-25T02:17:40.120Z,4.30
2023-04-25T02:19:13.928Z,4.40
2023-04-25T02:20:47.718Z,4.40
2023-04-25T02:22:20.946Z,4.40
2023-04-25T02:23:54.830Z,4.40
2023-04-25T02:25:29.739Z,4.50
2023-04-25T02:27:02.874Z,4.50
2023-04-25T02:28:36.279Z,4.60
2023-04-25T02:30:12.396Z,4.60
2023-04-25T02:31:45.717Z,4.60
2023-04-25T02:33:18.882Z,4.60
2023-04-25T02:34:52.259Z,4.70
2023-04-25T02:36:27.262Z,4.70
2023-04-25T02:38:00.593Z,4.70
2023-04-25T02:39:33.794Z,4.80
2023-04-25T02:41:08.269Z,4.80
2023-04-25T02:42:41.546Z,4.80
2023-04-25T02:44:14.708Z,4.80
2023-04-25T02:45:48.054Z,4.90
2023-04-25T02:47:21.738Z,4.90
2023-04-25T02:48:56.652Z,4.90
2023-04-25T02:50:30.020Z,4.90
2023-04-25T02:52:03.224Z,4.90
2023-04-25T02:53:36.397Z,5.00
2023-04-25T02:55:11.696Z,5.00
2023-04-25T02:56:45.307Z,5.00
2023-04-25T02:58:24.104Z,5.00
2023-04-25T02:59:59.393Z,5.10
2023-04-25T03:01:32.759Z,5.10
2023-04-25T03:03:06.313Z,5.10
2023-04-25T03:04:39.844Z,5.20
2023-04-25T03:06:13.162Z,5.20
2023-04-25T03:07:46.862Z,5.20
2023-04-25T03:09:20.209Z,5.20
2023-04-25T03:10:56.417Z,5.20
2023-04-25T03:12:31.249Z,5.30
2023-04-25T03:14:04.531Z,5.30
2023-04-25T03:15:38.072Z,5.30
2023-04-25T03:17:11.155Z,5.30
2023-04-25T03:18:44.414Z,5.30
2023-04-25T03:20:17.732Z,5.30
2023-04-25T03:21:50.018Z,5.40
2023-04-25T03:23:23.236Z,5.40
2023-04-25T03:24:57.453Z,5.40
2023-04-25T03:26:30.970Z,5.40
2023-04-25T03:28:05.698Z,5.40
2023-04-25T03:29:39.321Z,5.40
2023-04-25T03:31:12.824Z,5.40
2023-04-25T03:32:46.886Z,5.40
2023-04-25T03:34:25.078Z,5.40
2023-04-25T03:35:58.552Z,5.50
2023-04-25T03:37:31.813Z,5.50
2023-04-25T03:39:05.026Z,5.50
2023-04-25T03:40:38.751Z,5.50
2023-04-25T03:42:23.644Z,5.50
2023-04-25T03:43:58.276Z,5.50
2023-04-25T03:45:31.420Z,5.50
2023-04-25T03:47:05.020Z,5.60
2023-04-25T03:48:38.344Z,5.60
2023-04-25T03:50:12.283Z,5.60
2023-04-25T03:51:45.416Z,5.60
2023-04-25T03:53:18.887Z,5.60
2023-04-25T03:55:11.621Z,5.60
2023-04-25T03:56:45.849Z,5.60
2023-04-25T03:58:25.630Z,5.60
2023-04-25T04:00:00.177Z,5.60
2023-04-25T04:01:36.180Z,5.60
2023-04-25T04:03:09.890Z,5.60
2023-04-25T04:04:45.570Z,5.60
2023-04-25T04:06:19.852Z,5.60
2023-04-25T04:07:56.624Z,5.60
2023-04-25T04:09:30.271Z,5.60
2023-04-25T04:11:05.977Z,5.60
2023-04-25T04:12:40.507Z,5.60
2023-04-25T04:14:13.735Z,5.70
2023-04-25T04:15:52.344Z,5.70
2023-04-25T04:17:26.058Z,5.70
2023-04-25T04:18:59.553Z,5.70
2023-04-25T04:20:32.720Z,5.70
2023-04-25T04:22:05.894Z,5.70
2023-04-25T04:23:39.922Z,5.70
2023-04-25T04:25:14.392Z,5.70
2023-04-25T04:27:10.708Z,5.70
2023-04-25T04:28:52.776Z,5.70
2023-04-25T04:30:46.885Z,5.70
2023-04-25T04:32:20.735Z,5.70
2023-04-25T04:33:54.252Z,5.70
2023-04-25T04:35:27.480Z,5.70
2023-04-25T04:37:01.286Z,5.70
2023-04-25T04:38:34.551Z,5.70
2023-04-25T04:40:11.464Z,5.70
2023-04-25T04:41:51.899Z,5.80
2023-04-25T04:43:45.682Z,5.80
2023-04-25T04:45:35.121Z,5.80
2023-04-25T04:47:31.728Z,5.80
2023-04-25T04:49:43.695Z,5.80
2023-04-25T04:51:50.860Z,5.80
2023-04-25T04:53:41.898Z,5.80
2023-04-25T04:55:50.684Z,5.80
2023-04-25T04:57:35.457Z,5.80
2023-04-25T04:59:21.376Z,5.80
2023-04-25T05:01:07.311Z,5.80
2023-04-25T05:03:02.049Z,5.70
2023-04-25T05:05:01.620Z,5.80
2023-04-25T05:06:57.687Z,5.80
2023-04-25T05:08:51.545Z,5.80
2023-04-25T05:10:51.016Z,5.70
2023-04-25T05:12:40.175Z,5.70
2023-04-25T05:14:31.720Z,5.70
2023-04-25T05:16:16.483Z,5.70
2023-04-25T05:18:23.786Z,5.70
2023-04-25T05:20:32.449Z,5.70
2023-04-25T05:22:30.038Z,5.70
2023-04-25T05:24:19.861Z,5.70
2023-04-25T05:26:15.031Z,5.70
2023-04-25T05:28:21.630Z,5.70
2023-04-25T05:30:11.782Z,5.70
2023-04-25T05:32:14.340Z,5.70
2023-04-25T05:33:49.084Z,5.70
2023-04-25T05:35:22.666Z,5.70
2023-04-25T05:36:57.465Z,5.70
2023-04-25T05:38:34.513Z,5.70
2023-04-25T05:40:43.043Z,5.70
2023-04-25T05:42:26.957Z,5.70
2023-04-25T05:44:16.955Z,5.70
2023-04-25T05:46:21.653Z,5.70
2023-04-25T05:48:13.268Z,5.70
2023-04-25T05:50:17.837Z,5.70
2023-04-25T05:51:58.273Z,5.70
2023-04-25T05:53:54.500Z,5.70
2023-04-25T05:55:27.694Z,5.70
2023-04-25T05:57:03.521Z,5.70
2023-04-25T05:58:36.982Z,5.70
2023-04-25T06:00:12.214Z,5.70
2023-04-25T06:01:48.592Z,5.70
2023-04-25T06:03:22.477Z,5.70
2023-04-25T06:04:56.715Z,5.70
2023-04-25T06:06:31.767Z,5.70
2023-04-25T06:08:06.335Z,5.70
2023-04-25T06:09:40.827Z,5.70
2023-04-25T06:11:13.920Z,5.70
2023-04-25T06:12:47.279Z,5.70
2023-04-25T06:14:22.096Z,5.70
2023-04-25T06:15:56.989Z,5.70
2023-04-25T06:17:30.145Z,5.70
2023-04-25T06:19:03.436Z,5.80
2023-04-25T06:20:36.653Z,5.80
2023-04-25T06:22:12.164Z,5.80
2023-04-25T06:23:47.320Z,5.80
2023-04-25T06:25:26.756Z,5.80
2023-04-25T06:27:00.850Z,5.80
2023-04-25T06:28:34.167Z,5.80
2023-04-25T06:30:09.340Z,5.90
2023-04-25T06:31:42.654Z,5.90
2023-04-25T06:33:16.523Z,5.90
2023-04-25T06:34:49.678Z,5.90
2023-04-25T06:36:25.872Z,6.00
2023-04-25T06:38:02.992Z,6.00
2023-04-25T06:39:39.248Z,6.00
2023-04-25T06:41:13.813Z,6.10
2023-04-25T06:42:47.940Z,6.10
2023-04-25T06:44:44.158Z,6.10
2023-04-25T06:46:20.277Z,6.20
2023-04-25T06:47:55.753Z,6.20
2023-04-25T06:49:29.236Z,6.30
2023-04-25T06:51:02.467Z,6.30
2023-04-25T06:52:35.714Z,6.40
2023-04-25T06:54:10.472Z,6.40
2023-04-25T06:55:51.703Z,6.40
2023-04-25T06:57:27.530Z,6.50
2023-04-25T06:59:02.717Z,6.50
2023-04-25T07:00:38.976Z,6.60
2023-04-25T07:02:12.210Z,6.60
2023-04-25T07:03:46.206Z,6.70
2023-04-25T07:05:24.010Z,6.70
2023-04-25T07:06:57.753Z,6.70
2023-04-25T07:08:40.518Z,6.80
2023-04-25T07:10:15.232Z,6.80
2023-04-25T07:11:48.481Z,6.90
2023-04-25T07:13:21.881Z,6.90
2023-04-25T07:14:55.301Z,6.90
2023-04-25T07:16:28.622Z,6.90
2023-04-25T07:18:01.882Z,6.90
2023-04-25T07:19:35.576Z,6.90
2023-04-25T07:21:09.878Z,6.90
2023-04-25T07:22:43.985Z,6.90
2023-04-25T07:24:17.208Z,6.90
2023-04-25T07:25:54.804Z,7.00
2023-04-25T07:27:31.302Z,7.00
2023-04-25T07:29:31.156Z,7.00
2023-04-25T07:31:06.479Z,7.00
2023-04-25T07:32:40.529Z,7.00
2023-04-25T07:34:13.922Z,7.00
2023-04-25T07:35:57.453Z,7.00
2023-04-25T07:37:35.766Z,7.00
2023-04-25T07:39:21.528Z,7.00
2023-04-25T07:40:56.453Z,7.00
2023-04-25T07:42:29.906Z,7.00
2023-04-25T07:44:03.307Z,7.00
2023-04-25T07:45:37.849Z,7.00
2023-04-25T07:47:12.415Z,7.00
2023-04-25T07:48:45.737Z,7.00
2023-04-25T07:50:18.862Z,7.10
2023-04-25T07:51:53.959Z,7.00
2023-04-25T07:53:27.971Z,7.10
2023-04-25T07:55:07.297Z,7.10
2023-04-25T07:56:53.277Z,7.10
2023-04-25T07:58:29.798Z,7.10
2023-04-25T08:00:10.447Z,7.10
2023-04-25T08:01:46.870Z,7.10
2023-04-25T08:03:20.866Z,7.10
2023-04-25T08:04:54.670Z,7.20
2023-04-25T08:06:28.609Z,7.20
2023-04-25T08:08:13.215Z,7.20
2023-04-25T08:09:46.350Z,7.20
2023-04-25T08:11:28.613Z,7.20
2023-04-25T08:13:03.718Z,7.20
2023-04-25T08:14:38.319Z,7.20
2023-04-25T08:16:12.370Z,7.20
2023-04-25T08:17:46.336Z,7.20
2023-04-25T08:19:19.873Z,7.20
2023-04-25T08:20:53.972Z,7.20
2023-04-25T08:22:27.443Z,7.30
2023-04-25T08:24:14.278Z,7.20
2023-04-25T08:25:47.953Z,7.30
2023-04-25T08:27:23.546Z,7.30
2023-04-25T08:28:59.127Z,7.30
2023-04-25T08:30:32.570Z,7.30
2023-04-25T08:32:06.280Z,7.30
2023-04-25T08:33:41.835Z,7.40
2023-04-25T08:35:31.754Z,7.30
2023-04-25T08:37:06.287Z,7.40
2023-04-25T08:38:55.219Z,7.40
2023-04-25T08:40:31.354Z,7.40
2023-04-25T08:42:15.396Z,7.50
2023-04-25T08:43:52.244Z,7.50
2023-04-25T08:45:29.758Z,7.50
2023-04-25T08:47:06.265Z,7.50
2023-04-25T08:48:48.248Z,7.60
2023-04-25T08:50:27.174Z,7.60
2023-04-25T08:52:03.624Z,7.70
2023-04-25T08:53:38.528Z,7.70
2023-04-25T08:55:14.876Z,7.70
2023-04-25T08:56:50.231Z,7.80
2023-04-25T08:58:24.402Z,7.80
2023-04-25T08:59:59.226Z,7.90
2023-04-25T09:01:34.389Z,7.90
2023-04-25T09:03:08.286Z,7.90
2023-04-25T09:04:41.815Z,7.90
2023-04-25T09:06:17.106Z,7.90
2023-04-25T09:07:50.882Z,8.00
2023-04-25T09:09:26.123Z,7.90
2023-04-25T09:10:59.176Z,8.00
2023-04-25T09:12:33.693Z,8.00
2023-04-25T09:14:16.123Z,8.10
2023-04-25T09:16:05.979Z,8.10
2023-04-25T09:18:01.744Z,8.20
2023-04-25T09:19:42.157Z,8.20
2023-04-25T09:21:26.990Z,8.30
2023-04-25T09:23:04.961Z,8.30
2023-04-25T09:24:42.544Z,8.30
2023-04-25T09:26:19.176Z,8.30
2023-04-25T09:27:54.116Z,8.30
2023-04-25T09:29:38.539Z,8.30
2023-04-25T09:31:12.957Z,8.30
2023-04-25T09:32:51.562Z,8.30
2023-04-25T09:34:28.360Z,8.30
2023-04-25T09:36:06.832Z,8.30
2023-04-25T09:37:53.058Z,8.30
2023-04-25T09:40:01.539Z,8.30
2023-04-25T09:41:42.015Z,8.30
2023-04-25T09:43:22.681Z,8.40
2023-04-25T09:44:58.556Z,8.40
2023-04-25T09:46:36.612Z,8.40
2023-04-25T09:48:11.450Z,8.50
2023-04-25T09:49:52.777Z,8.50
2023-04-25T09:51:28.756Z,8.50
2023-04-25T09:53:07.931Z,8.60
2023-04-25T09:54:57.573Z,8.70
2023-04-25T09:56:39.919Z,8.70
2023-04-25T09:58:16.666Z,8.70
2023-04-25T09:59:52.941Z,8.70
2023-04-25T10:01:29.115Z,8.70
2023-04-25T10:03:19.326Z,8.70
2023-04-25T10:05:14.769Z,8.80
2023-04-25T10:06:51.446Z,8.80
2023-04-25T10:08:27.700Z,8.80
2023-04-25T10:10:04.963Z,8.90
2023-04-25T10:11:40.452Z,8.90
2023-04-25T10:13:15.459Z,8.90
2023-04-25T10:14:49.873Z,8.90
2023-04-25T10:16:23.962Z,8.90
2023-04-25T10:17:58.823Z,9.00
2023-04-25T10:19:32.238Z,9.10
2023-04-25T10:21:08.544Z,9.10
2023-04-25T10:22:47.093Z,9.10
2023-04-25T10:24:21.899Z,9.20
2023-04-25T10:25:55.949Z,9.30
2023-04-25T10:27:30.337Z,9.30
2023-04-25T10:29:05.596Z,9.30
2023-04-25T10:30:38.879Z,9.40
2023-04-25T10:32:12.377Z,9.50
2023-04-25T10:33:45.844Z,9.50
2023-04-25T10:35:21.695Z,9.50
2023-04-25T10:36:56.815Z,9.60
2023-04-25T10:38:30.046Z,9.50
2023-04-25T10:40:11.642Z,9.60
2023-04-25T10:41:50.086Z,9.60
2023-04-25T10:43:39.125Z,9.60
2023-04-25T10:45:12.497Z,9.70
2023-04-25T10:46:47.623Z,9.70
2023-04-25T10:48:27.859Z,9.80
2023-04-25T10:50:09.671Z,9.80
2023-04-25T10:53:26.805Z,9.90
2023-04-25T10:55:01.517Z,9.90
2023-04-25T10:56:42.056Z,9.90
2023-04-25T10:58:15.876Z,9.90
2023-04-25T10:59:49.542Z,9.90
2023-04-25T11:01:27.095Z,9.90
2023-04-25T11:03:02.095Z,9.90
2023-04-25T11:04:35.988Z,9.90
2023-04-25T11:06:24.322Z,9.90
2023-04-25T11:08:07.137Z,9.90
2023-04-25T11:09:43.163Z,9.90
2023-04-25T11:11:16.771Z,10.00
2023-04-25T11:12:49.894Z,9.90
2023-04-25T11:14:23.288Z,9.90
2023-04-25T11:16:07.096Z,9.90
2023-04-25T11:17:47.389Z,9.90
2023-04-25T11:19:22.147Z,9.90
2023-04-25T11:20:55.331Z,9.90
2023-04-25T11:22:30.851Z,10.00
2023-04-25T11:24:04.525Z,10.00
2023-04-25T11:25:40.598Z,9.90
2023-04-25T11:27:14.809Z,10.00
2023-04-25T11:28:48.363Z,10.00
2023-04-25T11:30:23.957Z,10.00
2023-04-25T11:31:59.270Z,10.00
2023-04-25T11:33:32.961Z,10.00
2023-04-25T11:35:08.195Z,10.00
2023-04-25T11:36:41.355Z,10.00
2023-04-25T11:38:14.805Z,10.00
2023-04-25T11:39:48.337Z,10.00
2023-04-25T11:41:23.087Z,10.00
2023-04-25T11:42:56.423Z,10.10
2023-04-25T11:44:30.608Z,10.10
2023-04-25T11:46:08.721Z,10.10
2023-04-25T11:47:42.213Z,10.20
2023-04-25T11:49:16.154Z,10.20
2023-04-25T11:50:49.278Z,10.20
2023-04-25T11:52:22.452Z,10.30
2023-04-25T11:53:55.807Z,10.30
2023-04-25T11:55:33.257Z,10.30
2023-04-25T11:57:08.012Z,10.30
2023-04-25T11:59:07.285Z,10.30
2023-04-25T12:00:50.041Z,10.30
2023-04-25T12:02:27.837Z,10.30
2023-04-25T12:04:13.562Z,10.20
2023-04-25T12:05:48.386Z,10.20
2023-04-25T12:07:23.669Z,10.10
2023-04-25T12:09:05.639Z,10.20
2023-04-25T12:10:41.080Z,10.10
2023-04-25T12:12:15.635Z,10.10
2023-04-25T12:13:54.360Z,10.00
2023-04-25T12:15:27.865Z,10.00
2023-04-25T12:17:04.814Z,9.90
2023-04-25T12:18:38.242Z,9.90
2023-04-25T12:20:14.944Z,10.00
2023-04-25T12:23:29.543Z,9.90
2023-04-25T12:25:04.785Z,9.90
2023-04-25T12:26:50.086Z,9.80
2023-04-25T12:28:28.283Z,9.80
2023-04-25T12:30:02.721Z,9.80
2023-04-25T12:31:36.033Z,9.90
2023-04-25T12:33:09.415Z,9.90
2023-04-25T12:34:42.604Z,9.90
2023-04-25T12:36:17.862Z,9.90
2023-04-25T12:37:51.092Z,10.00
2023-04-25T12:39:26.751Z,10.10
2023-04-25T12:41:00.717Z,10.10
2023-04-25T12:42:34.135Z,10.20
2023-04-25T12:44:08.618Z,10.20
2023-04-25T12:45:41.792Z,10.30
2023-04-25T12:47:15.783Z,10.40
2023-04-25T12:48:49.024Z,10.50
2023-04-25T12:50:22.179Z,10.60
2023-04-25T12:51:55.498Z,10.60
2023-04-25T12:53:28.654Z,10.70
2023-04-25T12:55:01.737Z,10.80
2023-04-25T12:56:35.162Z,10.80
2023-04-25T12:58:08.459Z,10.90
2023-04-25T12:59:43.006Z,10.90
2023-04-25T13:01:16.718Z,10.90
2023-04-25T13:02:50.265Z,11.00
2023-04-25T13:04:23.595Z,11.00
2023-04-25T13:05:56.899Z,11.00
2023-04-25T13:07:30.223Z,11.00
2023-04-25T13:09:04.358Z,11.10
2023-04-25T13:10:39.346Z,11.10
2023-04-25T13:12:12.541Z,11.10
2023-04-25T13:13:46.790Z,11.10
2023-04-25T13:15:22.871Z,11.10
2023-04-25T13:16:56.136Z,11.10
2023-04-25T13:18:29.536Z,11.00
2023-04-25T13:20:02.682Z,11.00
2023-04-25T13:21:36.285Z,11.00
2023-04-25T13:23:09.531Z,11.00
2023-04-25T13:24:42.678Z,11.00
2023-04-25T13:26:15.947Z,11.00
2023-04-25T13:27:49.429Z,10.90
2023-04-25T13:29:22.634Z,10.90
2023-04-25T13:30:57.195Z,10.90
2023-04-25T13:32:30.320Z,10.90
2023-04-25T13:34:03.595Z,10.90
2023-04-25T13:35:39.193Z,10.90
2023-04-25T13:37:12.371Z,10.90
2023-04-25T13:38:48.108Z,10.90
2023-04-25T13:40:23.907Z,10.90
2023-04-25T13:41:58.306Z,10.90
2023-04-25T13:43:31.494Z,10.90
2023-04-25T13:45:05.384Z,10.90
2023-04-25T13:46:47.166Z,10.90
2023-04-25T13:48:21.761Z,10.80
2023-04-25T13:49:55.398Z,10.80
2023-04-25T13:51:28.866Z,10.90
2023-04-25T13:53:02.852Z,10.90
2023-04-25T13:54:36.208Z,10.90
2023-04-25T13:56:09.471Z,10.90
2023-04-25T13:57:42.682Z,10.90
2023-04-25T13:59:15.998Z,11.00
2023-04-25T14:00:49.350Z,10.90
2023-04-25T14:02:23.932Z,10.90
2023-04-25T14:03:57.155Z,11.00
2023-04-25T14:05:30.632Z,10.90
2023-04-25T14:07:05.816Z,10.90
2023-04-25T14:08:38.993Z,10.90
2023-04-25T14:10:12.573Z,10.90
2023-04-25T14:11:46.067Z,10.90
2023-04-25T14:13:19.139Z,10.90
2023-04-25T14:14:54.007Z,10.90
2023-04-25T14:16:27.211Z,10.80
2023-04-25T14:18:02.863Z,10.90
2023-04-25T14:19:36.484Z,10.70
2023-04-25T14:21:10.274Z,10.70
2023-04-25T14:22:44.856Z,10.60
2023-04-25T14:24:18.411Z,10.60
2023-04-25T14:25:51.553Z,10.50
2023-04-25T14:27:25.386Z,10.50
2023-04-25T14:28:59.278Z,10.40
2023-04-25T14:30:32.691Z,10.40
2023-04-25T14:32:06.347Z,10.40
2023-04-25T14:33:43.586Z,10.40
2023-04-25T14:35:17.207Z,10.30
2023-04-25T14:36:50.921Z,10.30
2023-04-25T14:38:26.384Z,10.30
2023-04-25T14:39:59.543Z,10.30
2023-04-25T14:41:32.690Z,10.30
2023-04-25T14:43:06.334Z,10.20
2023-04-25T14:44:40.441Z,10.20
2023-04-25T14:46:13.808Z,10.20
2023-04-25T14:47:47.204Z,10.20
2023-04-25T14:49:21.882Z,10.30
2023-04-25T14:50:55.150Z,10.30
2023-04-25T14:52:28.308Z,10.30
2023-04-25T14:54:01.444Z,10.40
2023-04-25T14:55:34.648Z,10.40
2023-04-25T14:57:10.672Z,10.50
2023-04-25T14:58:58.876Z,10.50
2023-04-25T15:00:32.558Z,10.60
2023-04-25T15:02:06.019Z,10.60
2023-04-25T15:03:39.570Z,10.70
2023-04-25T15:05:14.290Z,10.80
2023-04-25T15:06:47.478Z,10.90
2023-04-25T15:08:20.617Z,10.90
2023-04-25T15:09:56.823Z,10.90
2023-04-25T15:11:30.254Z,11.00
2023-04-25T15:13:03.873Z,11.00
2023-04-25T15:14:37.068Z,11.10
2023-04-25T15:16:11.073Z,11.20
2023-04-25T15:17:44.707Z,11.20
2023-04-25T15:19:17.985Z,11.30
2023-04-25T15:20:53.598Z,11.30
2023-04-25T15:22:26.945Z,11.40
2023-04-25T15:24:00.233Z,11.40
2023-04-25T15:25:33.429Z,11.40
2023-04-25T15:27:07.098Z,11.40
2023-04-25T15:28:40.460Z,11.40
2023-04-25T15:30:17.239Z,11.50
2023-04-25T15:31:50.424Z,11.50
2023-04-25T15:33:23.728Z,11.50
2023-04-25T15:34:56.911Z,11.60
2023-04-25T15:36:32.569Z,11.60
2023-04-25T15:38:05.197Z,11.60
2023-04-25T15:39:38.627Z,11.60
2023-04-25T15:41:12.090Z,11.70
2023-04-25T15:42:48.830Z,11.70
2023-04-25T15:44:22.000Z,11.70
2023-04-25T15:45:55.681Z,11.70
2023-04-25T15:47:29.102Z,11.80
2023-04-25T15:49:02.948Z,11.80
2023-04-25T15:50:37.270Z,11.80
2023-04-25T15:52:11.871Z,11.70
2023-04-25T15:53:45.129Z,11.80
2023-04-25T15:55:21.172Z,11.70
2023-04-25T15:56:54.344Z,11.70
2023-04-25T15:58:27.697Z,11.70
2023-04-25T16:00:00.850Z,11.60
2023-04-25T16:01:34.688Z,11.60
2023-04-25T16:03:09.082Z,11.50
2023-04-25T16:04:42.673Z,11.50
2023-04-25T16:06:16.521Z,11.50
2023-04-25T16:07:53.584Z,11.40
2023-04-25T16:09:27.094Z,11.40
2023-04-25T16:11:00.234Z,11.30
2023-04-25T16:12:33.489Z,11.30
2023-04-25T16:14:06.699Z,11.30
2023-04-25T16:15:40.258Z,11.30
2023-04-25T16:17:13.718Z,11.20
2023-04-25T16:18:46.841Z,11.20
2023-04-25T16:20:20.025Z,11.20
2023-04-25T16:21:53.306Z,11.10
2023-04-25T16:23:27.834Z,11.10
2023-04-25T16:25:00.936Z,11.20
2023-04-25T16:26:34.042Z,11.10
2023-04-25T16:28:07.407Z,11.00
2023-04-25T16:29:42.225Z,11.00
2023-04-25T16:31:16.466Z,10.90
2023-04-25T16:32:50.136Z,10.90
2023-04-25T16:34:24.202Z,10.90
2023-04-25T16:35:57.393Z,10.90
2023-04-25T16:37:30.965Z,10.90
2023-04-25T16:39:08.330Z,10.90
2023-04-25T16:40:41.486Z,10.80
2023-04-25T16:42:15.451Z,10.80
2023-04-25T16:43:48.541Z,10.80
2023-04-25T16:45:22.465Z,10.80
2023-04-25T16:46:55.903Z,10.80
2023-04-25T16:48:29.291Z,10.70
2023-04-25T16:50:03.061Z,10.70
2023-04-25T16:51:36.752Z,10.70
2023-04-25T16:53:09.959Z,10.70
2023-04-25T16:54:45.456Z,10.70
2023-04-25T16:56:18.572Z,10.70
2023-04-25T16:57:51.792Z,10.70
2023-04-25T16:59:24.942Z,10.70
2023-04-25T17:00:58.235Z,10.70
2023-04-25T17:02:31.575Z,10.70
2023-04-25T17:04:05.022Z,10.60
2023-04-25T17:05:38.535Z,10.60
2023-04-25T17:07:11.711Z,10.60
2023-04-25T17:08:44.987Z,10.60
2023-04-25T17:10:19.959Z,10.60
2023-04-25T17:11:53.126Z,10.60
2023-04-25T17:13:30.881Z,10.60
2023-04-25T17:15:06.696Z,10.50
2023-04-25T17:16:40.549Z,10.50
2023-04-25T17:18:13.902Z,10.50
2023-04-25T17:19:47.588Z,10.40
2023-04-25T17:21:21.087Z,10.40
2023-04-25T17:22:55.425Z,10.40
2023-04-25T17:24:28.715Z,10.30
2023-04-25T17:26:03.236Z,10.30
2023-04-25T17:27:37.059Z,10.20
2023-04-25T17:29:10.412Z,10.20
2023-04-25T17:30:44.586Z,10.20
2023-04-25T17:32:17.817Z,10.10
2023-04-25T17:33:51.428Z,10.10
2023-04-25T17:35:25.990Z,10.00
2023-04-25T17:36:59.518Z,10.00
2023-04-25T17:38:33.990Z,9.90
2023-04-25T17:40:11.863Z,9.90
2023-04-25T17:41:47.593Z,9.90
2023-04-25T17:43:21.023Z,9.80
2023-04-25T17:44:55.429Z,9.80
2023-04-25T17:46:29.505Z,9.80
2023-04-25T17:48:03.542Z,9.80
2023-04-25T17:49:37.376Z,9.80
2023-04-25T17:51:11.005Z,9.80
2023-04-25T17:52:45.050Z,9.70
2023-04-25T17:54:18.474Z,9.70
2023-04-25T17:55:52.075Z,9.70
2023-04-25T17:57:27.043Z,9.70
2023-04-25T17:59:00.614Z,9.60
2023-04-25T18:00:35.091Z,9.60
2023-04-25T18:02:09.562Z,9.60
2023-04-25T18:03:45.248Z,9.60
2023-04-25T18:05:19.331Z,9.50
2023-04-25T18:06:52.790Z,9.60
2023-04-25T18:08:26.316Z,9.50
2023-04-25T18:09:59.623Z,9.50
2023-04-25T18:11:33.016Z,9.50
2023-04-25T18:13:09.028Z,9.50
2023-04-25T18:14:42.315Z,9.40
2023-04-25T18:16:16.086Z,9.50
2023-04-25T18:17:49.501Z,9.30
2023-04-25T18:19:23.873Z,9.30
2023-04-25T18:20:57.185Z,9.30
2023-04-25T18:22:30.548Z,9.20
2023-04-25T18:24:03.929Z,9.20
2023-04-25T18:25:37.251Z,9.20
2023-04-25T18:27:10.775Z,9.10
2023-04-25T18:28:45.603Z,9.10
2023-04-25T18:30:19.001Z,9.10
2023-04-25T18:31:52.724Z,9.00
2023-04-25T18:33:26.308Z,8.90
2023-04-25T18:35:00.228Z,8.90
2023-04-25T18:36:33.856Z,8.90
2023-04-25T18:38:07.351Z,8.80
2023-04-25T18:39:41.078Z,8.80
2023-04-25T18:42:54.668Z,8.70
2023-04-25T18:44:30.745Z,8.70
2023-04-25T18:46:04.053Z,8.70
2023-04-25T18:47:37.398Z,8.60
2023-04-25T18:49:10.861Z,8.60
2023-04-25T18:50:44.245Z,8.60
2023-04-25T18:52:17.712Z,8.50
2023-04-25T18:53:52.046Z,8.50
2023-04-25T18:55:25.679Z,8.50
2023-04-25T18:57:00.944Z,8.50
2023-04-25T18:58:34.608Z,8.40
2023-04-25T19:00:11.344Z,8.40
2023-04-25T19:01:45.724Z,8.40
2023-04-25T19:03:27.481Z,8.40
2023-04-25T19:05:01.351Z,8.30
2023-04-25T19:06:34.884Z,8.30
2023-04-25T19:08:08.726Z,8.30
2023-04-25T19:09:42.065Z,8.30
2023-04-25T19:12:56.693Z,8.20
2023-04-25T19:14:32.249Z,8.20
2023-04-25T19:16:07.970Z,8.10
2023-04-25T19:17:42.003Z,8.10
2023-04-25T19:19:15.732Z,8.10
2023-04-25T19:20:49.430Z,8.10
2023-04-25T19:22:22.801Z,8.10
2023-04-25T19:24:01.382Z,8.00
2023-04-25T19:25:35.560Z,8.00
2023-04-25T19:27:09.004Z,8.00
2023-04-25T19:28:45.343Z,8.00
2023-04-25T19:30:18.848Z,7.90
2023-04-25T19:31:54.623Z,7.90
2023-04-25T19:33:28.224Z,7.90
2023-04-25T19:35:01.761Z,7.90
2023-04-25T19:36:36.080Z,7.90
2023-04-25T19:38:09.654Z,7.80
2023-04-25T19:39:42.873Z,7.80
2023-04-25T19:41:16.175Z,7.80
2023-04-25T19:42:49.530Z,7.80
2023-04-25T19:44:23.134Z,7.70
2023-04-25T19:45:56.685Z,7.70
2023-04-25T19:47:31.671Z,7.70
2023-04-25T19:49:07.193Z,7.70
2023-04-25T19:50:41.603Z,7.70
2023-04-25T19:52:16.188Z,7.70
2023-04-25T19:53:49.714Z,7.70
2023-04-25T19:55:23.323Z,7.60
2023-04-25T19:56:57.311Z,7.60
2023-04-25T19:58:30.821Z,7.50
2023-04-25T20:00:10.738Z,7.50
2023-04-25T20:01:47.155Z,7.50
2023-04-25T20:03:21.924Z,7.40
2023-04-25T20:04:55.602Z,7.40
2023-04-25T20:06:29.353Z,7.30
2023-04-25T20:08:03.201Z,7.30
2023-04-25T20:09:37.866Z,7.30
2023-04-25T20:11:11.998Z,7.20
2023-04-25T20:12:46.201Z,7.20
2023-04-25T20:14:20.365Z,7.10
2023-04-25T20:15:53.627Z,7.10
2023-04-25T20:17:27.049Z,7.00
2023-04-25T20:19:02.292Z,7.00
2023-04-25T20:20:36.212Z,6.90
2023-04-25T20:22:09.708Z,6.90
2023-04-25T20:23:43.835Z,6.90
2023-04-25T20:25:17.494Z,6.80
2023-04-25T20:26:53.037Z,6.80
2023-04-25T20:28:27.279Z,6.70
2023-04-25T20:30:04.043Z,6.70
2023-04-25T20:31:38.678Z,6.60
2023-04-25T20:33:12.231Z,6.60
2023-04-25T20:34:47.234Z,6.50
2023-04-25T20:36:20.445Z,6.50
2023-04-25T20:37:53.830Z,6.50
2023-04-25T20:39:26.944Z,6.40
2023-04-25T20:41:00.407Z,6.40
2023-04-25T20:42:34.177Z,6.30
2023-04-25T20:44:07.755Z,6.30
2023-04-25T20:45:41.554Z,6.20
2023-04-25T20:47:14.744Z,6.20
2023-04-25T20:48:47.850Z,6.10
2023-04-25T20:50:22.361Z,6.10
2023-04-25T20:51:55.467Z,6.00
2023-04-25T20:53:28.723Z,6.00
2023-04-25T20:55:02.023Z,6.00
2023-04-25T20:56:35.614Z,5.90
2023-04-25T20:58:08.745Z,5.90
2023-04-25T20:59:41.979Z,5.80
2023-04-25T21:01:15.181Z,5.80
2023-04-25T21:02:48.579Z,5.70
2023-04-25T21:04:21.938Z,5.70
2023-04-25T21:05:56.559Z,5.70
2023-04-25T21:07:29.672Z,5.60
2023-04-25T21:09:04.552Z,5.60
2023-04-25T21:10:37.819Z,5.50
2023-04-25T21:12:11.300Z,5.50
2023-04-25T21:13:44.513Z,5.40